Aiwamaru — JD2602 — position and weather

sailwx.info

Track history (hours):
 
Tides and Currents Weather Stations Pressure Air Temp Water Temp Dewpoint Dewpoint Depression Visibility Wind Speed Wind Dir Waves Ship Positions

Aiwamaru

Last reported at 2017-Jan-06 02:06 UTC. Time now 2017-Jan-18 18:14 UTC.
Position N 34°12' E 135°03'.
Warning: this ship's position is 12 days out of date.

Length 64 m; draft 4.8 m.

Type: Tanker. MMSI: 431000508.

Date/timePositionNaut miles runAvg speedWind from/ knotsBaromVisibWave heightAir tempDewpointWater temp
2017-Jan-06 02:06N 34°12' E 135°03'5 9.0
2017-Jan-06 01:33N 34°13' E 135°09'0 0.0
2017-Jan-06 00:32N 34°13' E 135°09'0 0.0
2017-Jan-05 23:29N 34°13' E 135°09'0 0.0
2017-Jan-05 22:32N 34°13' E 135°09'1 0.5
2017-Jan-05 21:31N 34°13' E 135°08'1 0.9
2017-Jan-05 20:33N 34°12' E 135°07'0 0.0
2017-Jan-05 19:33N 34°12' E 135°07'0 0.0
2017-Jan-05 18:33N 34°12' E 135°07'7 7.1
2017-Jan-05 17:32N 34°10' E 134°59'  
Track history (hours):
 
Tides and Currents Weather Stations Pressure Air Temp Water Temp Dewpoint Dewpoint Depression Visibility Wind Speed Wind Dir Waves Ship Positions

Aiwamaru

Last reported at 2017-Jan-06 02:06 UTC. Time now 2017-Jan-18 18:14 UTC.
Position N 34°12' E 135°03'.
Warning: this ship's position is 12 days out of date.

Length 64 m; draft 4.8 m.

Type: Tanker. MMSI: 431000508.

Date/timePositionNaut miles runAvg speedWind from/ knotsBaromVisibWave heightAir tempDewpointWater temp
2017-Jan-06 02:06N 34°12' E 135°03'5 9.0
2017-Jan-06 01:33N 34°13' E 135°09'0 0.0
2017-Jan-06 00:32N 34°13' E 135°09'0 0.0
2017-Jan-05 23:29N 34°13' E 135°09'0 0.0
2017-Jan-05 22:32N 34°13' E 135°09'1 0.5
2017-Jan-05 21:31N 34°13' E 135°08'1 0.9
2017-Jan-05 20:33N 34°12' E 135°07'0 0.0
2017-Jan-05 19:33N 34°12' E 135°07'0 0.0
2017-Jan-05 18:33N 34°12' E 135°07'7 7.1
2017-Jan-05 17:32N 34°10' E 134°59'  

Dump ship's entire track history